createdAt,value
2018-10-02T07:40:41.207Z,25.76
2018-10-02T07:43:11.247Z,26.27
2018-10-02T07:45:41.996Z,25.49
2018-10-02T07:48:12.643Z,25.29
2018-10-02T07:50:44.332Z,25.88
2018-10-02T07:53:14.689Z,25.42
2018-10-02T07:55:46.078Z,24.98
2018-10-02T07:58:20.893Z,26.28
2018-10-02T08:00:52.652Z,27.21
2018-10-02T08:03:24.379Z,28.01
2018-10-02T08:05:55.013Z,28.31
2018-10-02T08:08:26.069Z,28.54
2018-10-02T08:10:57.683Z,29.33
2018-10-02T08:13:27.556Z,28.06
2018-10-02T08:15:57.495Z,27.82
2018-10-02T08:18:27.590Z,27.09
2018-10-02T08:20:58.132Z,28.46
2018-10-02T08:23:28.164Z,28.54
2018-10-02T08:25:58.150Z,28.83
2018-10-02T08:28:28.140Z,28.16
2018-10-02T08:30:58.605Z,26.59
2018-10-02T08:33:28.635Z,27.05
2018-10-02T08:35:58.794Z,26.54
2018-10-02T08:38:28.709Z,27.13
2018-10-02T08:40:59.332Z,27.05
2018-10-02T08:43:29.291Z,27.77
2018-10-02T08:45:58.992Z,27.64
2018-10-02T08:48:29.086Z,28.17
2018-10-02T08:51:01.563Z,29.05
2018-10-02T08:53:32.451Z,29.86
2018-10-02T08:56:02.547Z,29.63
2018-10-02T08:58:32.485Z,28.77
2018-10-02T09:01:03.085Z,28.45
2018-10-02T09:03:33.166Z,28.98
2018-10-02T09:06:03.118Z,29.74
2018-10-02T09:08:33.078Z,30.01
2018-10-02T09:11:03.833Z,30.73
2018-10-02T09:13:33.867Z,29.52
2018-10-02T09:16:03.972Z,29.51
2018-10-02T09:18:33.955Z,28.95
2018-10-02T09:21:04.851Z,29.33
2018-10-02T09:23:35.246Z,30.46
2018-10-02T09:26:05.287Z,29.70
2018-10-02T09:28:35.225Z,29.00
2018-10-02T09:31:11.137Z,29.54
2018-10-02T09:33:46.213Z,29.27
2018-10-02T09:36:21.148Z,29.98
2018-10-02T09:38:57.621Z,29.65
2018-10-02T09:41:32.691Z,29.88
2018-10-02T09:44:04.264Z,30.39
2018-10-02T09:46:34.126Z,30.10
2018-10-02T09:49:04.266Z,30.15
2018-10-02T09:51:34.712Z,30.49
2018-10-02T09:54:04.875Z,29.92
2018-10-02T09:56:40.065Z,30.46
2018-10-02T09:59:10.167Z,30.74
2018-10-02T10:01:45.289Z,29.93
2018-10-02T10:04:16.246Z,31.28
2018-10-02T10:06:47.280Z,31.89
2018-10-02T10:09:17.747Z,31.58
2018-10-02T10:11:49.654Z,30.43
2018-10-02T10:14:20.482Z,31.66
2018-10-02T10:16:51.417Z,30.62
2018-10-02T10:19:22.270Z,31.17
2018-10-02T10:21:54.198Z,32.24
2018-10-02T10:24:24.535Z,30.75
2018-10-02T10:26:55.059Z,31.84
2018-10-02T10:29:26.642Z,30.66
2018-10-02T10:31:59.336Z,31.80
2018-10-02T10:34:34.600Z,30.26
2018-10-02T10:37:05.692Z,30.82
2018-10-02T10:39:36.474Z,31.68
2018-10-02T10:42:09.496Z,31.20
2018-10-02T10:44:40.639Z,32.21
2018-10-02T10:47:12.020Z,32.13
2018-10-02T10:49:42.994Z,33.16
2018-10-02T10:52:14.085Z,33.32
2018-10-02T10:54:54.323Z,32.86
2018-10-02T10:57:25.234Z,31.95
2018-10-02T10:59:55.759Z,29.10
2018-10-02T11:02:27.089Z,29.04
2018-10-02T11:04:58.156Z,28.95
2018-10-02T11:07:29.479Z,29.06
2018-10-02T11:10:00.092Z,28.27
2018-10-02T11:12:30.943Z,27.24
2018-10-02T11:15:01.548Z,26.82
2018-10-02T11:17:32.749Z,27.02
2018-10-02T11:20:05.065Z,26.74
2018-10-02T11:22:37.195Z,26.34
2018-10-02T11:25:08.846Z,26.38
2018-10-02T11:27:39.685Z,26.08
2018-10-02T11:30:10.915Z,26.14
2018-10-02T11:32:41.395Z,26.68
2018-10-02T11:35:11.959Z,26.33
2018-10-02T11:37:42.916Z,25.63
2018-10-02T11:40:14.393Z,25.99
2018-10-02T11:42:46.755Z,26.16
2018-10-02T11:45:17.462Z,26.38
2018-10-02T11:47:49.298Z,26.33
2018-10-02T11:50:20.042Z,26.16
2018-10-02T11:52:52.706Z,26.34
2018-10-02T11:55:24.097Z,26.41
2018-10-02T11:57:54.877Z,26.47
2018-10-02T12:00:26.083Z,26.51
2018-10-02T12:02:57.623Z,26.71
2018-10-02T12:05:28.789Z,26.55
2018-10-02T12:07:59.780Z,26.67
2018-10-02T12:10:30.359Z,27.32
2018-10-02T12:13:02.579Z,26.98
2018-10-02T12:15:33.922Z,26.97
2018-10-02T12:18:04.491Z,26.88
2018-10-02T12:20:35.848Z,27.46
2018-10-02T12:23:08.161Z,27.78
2018-10-02T12:25:39.503Z,27.89
2018-10-02T12:28:10.756Z,27.76
2018-10-02T12:30:41.567Z,27.97
2018-10-02T12:33:13.130Z,28.93
2018-10-02T12:35:44.495Z,29.39
2018-10-02T12:38:15.414Z,29.59
2018-10-02T12:40:46.398Z,29.83
2018-10-02T12:43:19.264Z,29.07
2018-10-02T12:45:50.651Z,29.27
2018-10-02T12:48:21.594Z,28.87
2018-10-02T12:50:52.927Z,30.25
2018-10-02T12:53:25.559Z,30.69
2018-10-02T12:55:55.971Z,30.76
2018-10-02T12:58:27.152Z,31.98
2018-10-02T13:00:58.125Z,32.31
2018-10-02T13:03:29.049Z,31.84
2018-10-02T13:05:59.006Z,30.64
2018-10-02T13:08:28.962Z,30.79
2018-10-02T13:10:58.980Z,30.05
2018-10-02T13:13:29.602Z,30.56
2018-10-02T13:15:59.679Z,29.76
2018-10-02T13:18:29.678Z,30.08
2018-10-02T13:20:59.679Z,29.76
2018-10-02T13:23:30.333Z,29.22
2018-10-02T13:26:00.427Z,28.85
2018-10-02T13:28:30.458Z,29.56
2018-10-02T13:31:00.495Z,30.00
2018-10-02T13:33:30.390Z,30.38
2018-10-02T13:36:00.556Z,30.63
2018-10-02T13:38:30.347Z,30.70
2018-10-02T13:41:00.315Z,30.78
2018-10-02T13:43:30.786Z,30.97
2018-10-02T13:46:00.845Z,30.70
2018-10-02T13:48:30.829Z,30.37
2018-10-02T13:51:00.824Z,29.83
2018-10-02T13:53:31.610Z,30.06
2018-10-02T13:56:01.761Z,29.87
2018-10-02T13:58:31.720Z,29.00
2018-10-02T14:01:01.822Z,28.54
2018-10-02T14:03:32.919Z,28.70
2018-10-02T14:06:02.869Z,29.27
2018-10-02T14:08:32.871Z,28.93
2018-10-02T14:11:03.049Z,28.85
2018-10-02T14:13:33.819Z,29.50
2018-10-02T14:16:03.844Z,29.66
2018-10-02T14:18:33.862Z,28.88
2018-10-02T14:21:03.808Z,28.48
2018-10-02T14:23:34.193Z,28.72
2018-10-02T14:26:04.256Z,28.66
2018-10-02T14:28:34.278Z,28.81
2018-10-02T14:31:04.364Z,29.68
2018-10-02T14:33:35.439Z,29.10
2018-10-02T14:36:06.010Z,28.52
2018-10-02T14:38:37.313Z,27.72
2018-10-02T14:41:08.183Z,28.18
2018-10-02T14:43:39.839Z,28.00
2018-10-02T14:46:11.286Z,27.56
2018-10-02T14:48:41.863Z,27.83
2018-10-02T14:51:12.546Z,27.31
2018-10-02T14:53:43.935Z,27.59
2018-10-02T14:56:14.369Z,26.54
2018-10-02T14:58:45.238Z,27.02
2018-10-02T15:01:16.521Z,26.65
2018-10-02T15:03:47.603Z,26.07
2018-10-02T15:06:18.611Z,25.35
2018-10-02T15:08:49.641Z,25.22
2018-10-02T15:11:21.192Z,24.96
2018-10-02T15:13:53.546Z,24.46
2018-10-02T15:16:24.612Z,24.70
2018-10-02T15:18:55.449Z,24.74
2018-10-02T15:21:26.235Z,24.24
2018-10-02T15:23:57.726Z,23.95
2018-10-02T15:26:28.416Z,24.19
2018-10-02T15:28:59.972Z,23.78
2018-10-02T15:31:31.245Z,23.92
2018-10-02T15:34:01.943Z,24.28
2018-10-02T15:36:33.232Z,24.27
2018-10-02T15:39:04.946Z,23.67
2018-10-02T15:41:35.973Z,23.17
2018-10-02T15:44:07.879Z,23.38
2018-10-02T15:46:38.725Z,23.18
2018-10-02T15:49:10.135Z,23.40
2018-10-02T15:51:40.882Z,23.33
2018-10-02T15:54:11.997Z,23.01
2018-10-02T15:56:42.543Z,23.24
2018-10-02T15:59:13.402Z,23.21
2018-10-02T16:01:44.706Z,23.30
2018-10-02T16:04:16.550Z,23.07
2018-10-02T16:06:47.637Z,22.47
2018-10-02T16:09:18.516Z,22.32
2018-10-02T16:11:49.735Z,21.86
2018-10-02T16:14:21.508Z,21.64
2018-10-02T16:16:52.720Z,21.20
2018-10-02T16:19:23.672Z,21.10
2018-10-02T16:21:54.685Z,21.14
2018-10-02T16:24:25.636Z,21.07
2018-10-02T16:26:56.713Z,21.04
2018-10-02T16:29:28.146Z,21.24
2018-10-02T16:31:59.272Z,21.64
2018-10-02T16:34:31.185Z,21.46
2018-10-02T16:37:01.288Z,21.46
2018-10-02T16:39:31.209Z,21.37
2018-10-02T16:42:01.265Z,21.20
2018-10-02T16:44:33.482Z,21.17
2018-10-02T16:47:03.649Z,20.96
2018-10-02T16:49:33.678Z,21.03
2018-10-02T16:52:03.727Z,20.93
2018-10-02T16:54:37.238Z,21.03
2018-10-02T16:57:07.580Z,20.93
2018-10-02T16:59:37.673Z,21.00
2018-10-02T17:02:07.628Z,20.68
2018-10-02T17:04:37.801Z,20.91
2018-10-02T17:07:07.839Z,20.91
2018-10-02T17:09:38.399Z,20.99
2018-10-02T17:12:09.281Z,20.80
2018-10-02T17:14:40.940Z,20.82
2018-10-02T17:17:12.186Z,20.64
2018-10-02T17:19:42.717Z,20.21
2018-10-02T17:22:14.284Z,20.15
2018-10-02T17:24:45.631Z,20.35
2018-10-02T17:27:16.378Z,20.47
2018-10-02T17:29:47.245Z,20.46
2018-10-02T17:32:18.294Z,20.41
2018-10-02T17:34:50.020Z,20.27
2018-10-02T17:37:20.947Z,20.32
2018-10-02T17:39:51.975Z,20.28
2018-10-02T17:42:22.688Z,19.76
2018-10-02T17:44:54.050Z,19.33
2018-10-02T17:47:24.803Z,19.31
2018-10-02T17:49:55.647Z,18.93
2018-10-02T17:52:26.805Z,19.00
2018-10-02T17:54:58.400Z,18.93
2018-10-02T17:57:29.517Z,18.79
2018-10-02T18:00:00.543Z,19.32
2018-10-02T18:02:31.414Z,19.41
2018-10-02T18:05:03.359Z,19.60
2018-10-02T18:07:34.166Z,19.25
2018-10-02T18:10:05.235Z,18.89
2018-10-02T18:12:35.763Z,18.82
2018-10-02T18:15:07.988Z,18.91
2018-10-02T18:17:38.845Z,18.83
2018-10-02T18:20:09.459Z,18.88
2018-10-02T18:22:39.992Z,19.16
2018-10-02T18:25:11.580Z,19.29
2018-10-02T18:27:42.154Z,19.31
2018-10-02T18:30:13.268Z,19.36
2018-10-02T18:32:44.215Z,19.34
2018-10-02T18:35:15.288Z,19.21
2018-10-02T18:37:46.390Z,18.46
2018-10-02T18:40:16.931Z,18.51
2018-10-02T18:42:47.925Z,18.21
2018-10-02T18:45:19.002Z,18.55
2018-10-02T18:47:50.071Z,18.92
2018-10-02T18:50:21.284Z,19.10
2018-10-02T18:52:52.763Z,19.20
2018-10-02T18:55:24.246Z,19.24
2018-10-02T18:57:55.372Z,18.99
2018-10-02T19:00:27.038Z,18.87
2018-10-02T19:02:57.601Z,18.99
2018-10-02T19:05:30.251Z,19.02
2018-10-02T19:08:01.610Z,19.05
2018-10-02T19:10:33.039Z,19.03
2018-10-02T19:13:04.058Z,19.09
2018-10-02T19:15:39.913Z,19.00
2018-10-02T19:18:10.781Z,18.97
2018-10-02T19:20:46.026Z,18.97
2018-10-02T19:23:17.003Z,18.84
2018-10-02T19:25:54.187Z,18.90
2018-10-02T19:28:25.602Z,18.81
2018-10-02T19:31:00.879Z,18.82
2018-10-02T19:33:31.426Z,18.76
2018-10-02T19:36:03.698Z,18.27
2018-10-02T19:38:39.924Z,18.21
2018-10-02T19:41:11.224Z,18.29
2018-10-02T19:43:41.740Z,18.49
2018-10-02T19:46:19.395Z,18.65
2018-10-02T19:48:49.984Z,18.56
2018-10-02T19:51:26.047Z,18.06
2018-10-02T19:53:56.613Z,18.02
2018-10-02T19:56:27.295Z,18.29
2018-10-02T19:58:58.267Z,18.39
2018-10-02T20:01:28.945Z,18.48
2018-10-02T20:04:00.424Z,18.46
2018-10-02T20:06:31.251Z,18.28
2018-10-02T20:09:02.145Z,18.24
2018-10-02T20:11:33.091Z,18.17
2018-10-02T20:14:04.049Z,18.25
2018-10-02T20:16:35.487Z,18.27
2018-10-02T20:19:06.272Z,17.48
2018-10-02T20:21:37.524Z,17.18
2018-10-02T20:24:08.277Z,17.21
2018-10-02T20:26:40.261Z,17.37
2018-10-02T20:29:11.168Z,17.69
2018-10-02T20:31:46.068Z,17.80
2018-10-02T20:34:17.108Z,17.94
2018-10-02T20:36:48.541Z,18.09
2018-10-02T20:39:19.807Z,18.03
2018-10-02T20:41:51.152Z,18.02
2018-10-02T20:44:22.454Z,18.11
2018-10-02T20:46:54.120Z,18.10
2018-10-02T20:49:25.168Z,17.46
2018-10-02T20:51:55.697Z,17.17
2018-10-02T20:54:26.243Z,16.82
2018-10-02T20:56:57.152Z,17.36
2018-10-02T20:59:28.135Z,17.29
2018-10-02T21:01:58.858Z,16.71
2018-10-02T21:04:29.974Z,16.44
2018-10-02T21:07:02.449Z,16.92
2018-10-02T21:09:32.999Z,16.75
2018-10-02T21:12:03.751Z,16.88
2018-10-02T21:14:34.863Z,16.81
2018-10-02T21:17:07.800Z,16.87
2018-10-02T21:19:39.009Z,17.23
2018-10-02T21:22:10.244Z,17.36
2018-10-02T21:24:40.637Z,17.07
2018-10-02T21:27:12.411Z,16.83
2018-10-02T21:29:42.981Z,15.44
2018-10-02T21:32:14.162Z,17.34
2018-10-02T21:34:45.254Z,17.26
2018-10-02T21:37:16.775Z,17.37
2018-10-02T21:39:47.507Z,17.48
2018-10-02T21:42:18.566Z,17.58
2018-10-02T21:44:49.106Z,17.75
2018-10-02T21:47:20.452Z,17.78
2018-10-02T21:49:51.646Z,17.81
2018-10-02T21:52:22.904Z,17.80
2018-10-02T21:54:53.627Z,17.68
2018-10-02T21:57:25.605Z,17.73
2018-10-02T21:59:57.074Z,17.57
2018-10-02T22:02:28.537Z,17.61
2018-10-02T22:04:59.689Z,17.63
2018-10-02T22:07:30.834Z,17.57
2018-10-02T22:10:02.512Z,17.61
2018-10-02T22:12:33.285Z,17.55
2018-10-02T22:15:04.706Z,17.40
2018-10-02T22:17:36.117Z,17.43
2018-10-02T22:20:06.784Z,17.66
2018-10-02T22:22:37.359Z,17.67
2018-10-02T22:25:08.603Z,17.66
2018-10-02T22:27:41.130Z,17.69
2018-10-02T22:30:13.503Z,17.68
2018-10-02T22:32:45.028Z,17.73
2018-10-02T22:35:15.631Z,17.86
2018-10-02T22:37:47.473Z,17.67
2018-10-02T22:40:18.746Z,17.72
2018-10-02T22:42:49.777Z,17.78
2018-10-02T22:45:21.009Z,17.38
2018-10-02T22:47:53.465Z,17.15
2018-10-02T22:50:24.363Z,17.44
2018-10-02T22:52:54.806Z,17.79
2018-10-02T22:55:25.548Z,17.85
2018-10-02T22:57:57.920Z,17.69
2018-10-02T23:00:28.591Z,17.72
2018-10-02T23:02:59.605Z,17.78
2018-10-02T23:05:30.214Z,17.74
2018-10-02T23:08:01.979Z,17.84
2018-10-02T23:10:32.988Z,17.91
2018-10-02T23:13:04.015Z,18.05
2018-10-02T23:15:35.296Z,18.00
2018-10-02T23:18:06.060Z,18.05
2018-10-02T23:20:36.762Z,17.97
2018-10-02T23:23:07.677Z,18.05
2018-10-02T23:25:38.185Z,18.05
2018-10-02T23:28:10.633Z,17.97
2018-10-02T23:30:42.799Z,18.00
2018-10-02T23:33:13.666Z,17.89
2018-10-02T23:35:44.887Z,17.99
2018-10-02T23:38:16.058Z,18.00
2018-10-02T23:40:47.097Z,17.74
2018-10-02T23:43:18.275Z,17.49
2018-10-02T23:45:48.742Z,17.42
2018-10-02T23:48:19.899Z,17.33
2018-10-02T23:50:51.140Z,16.98
2018-10-02T23:53:21.748Z,16.54
2018-10-02T23:55:52.507Z,16.46
2018-10-02T23:58:23.791Z,16.88
